sensor_id;sensor_type;location;lat;lon;timestamp;P1;durP1;ratioP1;P2;durP2;ratioP2
62957;SDS011;49056;48.352;10.926;2023-02-11T00:01:59;6.57;;;3.83;;
62957;SDS011;49056;48.352;10.926;2023-02-11T00:07:20;6.90;;;4.07;;
62957;SDS011;49056;48.352;10.926;2023-02-11T00:12:40;6.18;;;3.42;;
62957;SDS011;49056;48.352;10.926;2023-02-11T00:18:02;7.90;;;4.12;;
62957;SDS011;49056;48.352;10.926;2023-02-11T00:23:22;6.60;;;4.68;;
62957;SDS011;49056;48.352;10.926;2023-02-11T00:28:43;6.60;;;3.80;;
62957;SDS011;49056;48.352;10.926;2023-02-11T00:34:03;7.30;;;4.53;;
62957;SDS011;49056;48.352;10.926;2023-02-11T00:39:24;7.12;;;4.20;;
62957;SDS011;49056;48.352;10.926;2023-02-11T00:44:44;7.75;;;4.80;;
62957;SDS011;49056;48.352;10.926;2023-02-11T00:50:05;7.43;;;4.90;;
62957;SDS011;49056;48.352;10.926;2023-02-11T00:55:25;5.37;;;3.67;;
62957;SDS011;49056;48.352;10.926;2023-02-11T01:00:46;6.57;;;4.60;;
62957;SDS011;49056;48.352;10.926;2023-02-11T01:06:06;7.77;;;4.33;;
62957;SDS011;49056;48.352;10.926;2023-02-11T01:11:27;6.80;;;3.62;;
62957;SDS011;49056;48.352;10.926;2023-02-11T01:16:47;4.97;;;3.80;;
62957;SDS011;49056;48.352;10.926;2023-02-11T01:22:07;4.95;;;3.67;;
62957;SDS011;49056;48.352;10.926;2023-02-11T01:27:28;6.28;;;3.72;;
62957;SDS011;49056;48.352;10.926;2023-02-11T01:32:48;6.67;;;4.13;;
62957;SDS011;49056;48.352;10.926;2023-02-11T01:38:18;7.43;;;4.05;;
62957;SDS011;49056;48.352;10.926;2023-02-11T01:43:40;6.50;;;3.53;;
62957;SDS011;49056;48.352;10.926;2023-02-11T01:49:03;7.07;;;3.92;;
62957;SDS011;49056;48.352;10.926;2023-02-11T01:54:25;4.40;;;3.00;;
62957;SDS011;49056;48.352;10.926;2023-02-11T02:00:19;5.30;;;3.42;;
62957;SDS011;49056;48.352;10.926;2023-02-11T02:05:47;5.05;;;3.90;;
62957;SDS011;49056;48.352;10.926;2023-02-11T02:11:10;5.45;;;3.72;;
62957;SDS011;49056;48.352;10.926;2023-02-11T02:16:32;5.63;;;3.27;;
62957;SDS011;49056;48.352;10.926;2023-02-11T02:38:49;6.10;;;4.10;;
62957;SDS011;49056;48.352;10.926;2023-02-11T02:44:11;4.75;;;3.78;;
62957;SDS011;49056;48.352;10.926;2023-02-11T02:49:31;5.28;;;3.95;;
62957;SDS011;49056;48.352;10.926;2023-02-11T02:54:55;5.43;;;3.15;;
62957;SDS011;49056;48.352;10.926;2023-02-11T03:11:18;4.35;;;3.12;;
62957;SDS011;49056;48.352;10.926;2023-02-11T03:16:39;6.18;;;3.62;;
62957;SDS011;49056;48.352;10.926;2023-02-11T03:21:59;4.68;;;2.78;;
62957;SDS011;49056;48.352;10.926;2023-02-11T03:32:49;6.70;;;3.92;;
62957;SDS011;49056;48.352;10.926;2023-02-11T03:38:11;6.07;;;3.03;;
62957;SDS011;49056;48.352;10.926;2023-02-11T03:43:34;4.07;;;3.03;;
62957;SDS011;49056;48.352;10.926;2023-02-11T03:48:57;5.18;;;3.15;;
62957;SDS011;49056;48.352;10.926;2023-02-11T03:54:23;6.90;;;2.95;;
62957;SDS011;49056;48.352;10.926;2023-02-11T03:59:48;5.25;;;3.00;;
62957;SDS011;49056;48.352;10.926;2023-02-11T04:05:13;5.03;;;3.40;;
62957;SDS011;49056;48.352;10.926;2023-02-11T04:10:34;4.72;;;2.67;;
62957;SDS011;49056;48.352;10.926;2023-02-11T04:15:54;5.45;;;3.50;;
62957;SDS011;49056;48.352;10.926;2023-02-11T04:21:14;4.07;;;2.92;;
62957;SDS011;49056;48.352;10.926;2023-02-11T04:26:35;4.68;;;3.00;;
62957;SDS011;49056;48.352;10.926;2023-02-11T04:31:55;5.80;;;3.30;;
62957;SDS011;49056;48.352;10.926;2023-02-11T04:37:15;4.93;;;2.35;;
62957;SDS011;49056;48.352;10.926;2023-02-11T04:42:36;5.72;;;2.83;;
62957;SDS011;49056;48.352;10.926;2023-02-11T04:47:56;4.30;;;2.65;;
62957;SDS011;49056;48.352;10.926;2023-02-11T04:53:16;4.72;;;2.85;;
62957;SDS011;49056;48.352;10.926;2023-02-11T04:58:37;5.10;;;3.05;;
62957;SDS011;49056;48.352;10.926;2023-02-11T05:03:57;4.78;;;3.08;;
62957;SDS011;49056;48.352;10.926;2023-02-11T05:09:17;3.83;;;2.90;;
62957;SDS011;49056;48.352;10.926;2023-02-11T05:14:38;4.13;;;2.47;;
62957;SDS011;49056;48.352;10.926;2023-02-11T05:19:58;4.62;;;3.03;;
62957;SDS011;49056;48.352;10.926;2023-02-11T05:25:18;3.78;;;2.35;;
62957;SDS011;49056;48.352;10.926;2023-02-11T05:30:39;3.90;;;2.33;;
62957;SDS011;49056;48.352;10.926;2023-02-11T05:36:01;5.57;;;2.25;;
62957;SDS011;49056;48.352;10.926;2023-02-11T05:41:21;4.62;;;2.83;;
62957;SDS011;49056;48.352;10.926;2023-02-11T05:46:41;3.62;;;2.25;;
62957;SDS011;49056;48.352;10.926;2023-02-11T05:52:02;4.78;;;2.45;;
62957;SDS011;49056;48.352;10.926;2023-02-11T05:57:22;5.07;;;2.97;;
62957;SDS011;49056;48.352;10.926;2023-02-11T06:02:43;4.43;;;3.00;;
62957;SDS011;49056;48.352;10.926;2023-02-11T06:08:03;5.87;;;3.27;;
62957;SDS011;49056;48.352;10.926;2023-02-11T06:13:24;4.40;;;2.10;;
62957;SDS011;49056;48.352;10.926;2023-02-11T06:18:44;3.50;;;2.10;;
62957;SDS011;49056;48.352;10.926;2023-02-11T06:24:04;4.20;;;2.72;;
62957;SDS011;49056;48.352;10.926;2023-02-11T06:29:25;5.45;;;3.25;;
62957;SDS011;49056;48.352;10.926;2023-02-11T06:34:45;3.67;;;2.72;;
62957;SDS011;49056;48.352;10.926;2023-02-11T06:40:06;3.25;;;2.15;;
62957;SDS011;49056;48.352;10.926;2023-02-11T06:45:26;6.03;;;2.67;;
62957;SDS011;49056;48.352;10.926;2023-02-11T06:50:47;3.45;;;1.58;;
62957;SDS011;49056;48.352;10.926;2023-02-11T06:56:11;6.10;;;2.62;;
62957;SDS011;49056;48.352;10.926;2023-02-11T07:01:31;4.07;;;2.37;;
62957;SDS011;49056;48.352;10.926;2023-02-11T07:06:51;3.83;;;2.25;;
62957;SDS011;49056;48.352;10.926;2023-02-11T07:12:12;3.92;;;2.70;;
62957;SDS011;49056;48.352;10.926;2023-02-11T07:17:33;4.30;;;2.97;;
62957;SDS011;49056;48.352;10.926;2023-02-11T07:22:53;3.47;;;2.08;;
62957;SDS011;49056;48.352;10.926;2023-02-11T07:28:14;4.00;;;2.30;;
62957;SDS011;49056;48.352;10.926;2023-02-11T07:33:34;3.75;;;2.15;;
62957;SDS011;49056;48.352;10.926;2023-02-11T07:38:55;4.05;;;2.20;;
62957;SDS011;49056;48.352;10.926;2023-02-11T07:44:15;3.40;;;1.77;;
62957;SDS011;49056;48.352;10.926;2023-02-11T07:49:35;4.53;;;2.70;;
62957;SDS011;49056;48.352;10.926;2023-02-11T07:54:56;4.62;;;2.20;;
62957;SDS011;49056;48.352;10.926;2023-02-11T08:00:16;4.25;;;2.20;;
62957;SDS011;49056;48.352;10.926;2023-02-11T08:05:37;4.05;;;1.70;;
62957;SDS011;49056;48.352;10.926;2023-02-11T08:10:57;5.47;;;3.15;;
62957;SDS011;49056;48.352;10.926;2023-02-11T08:16:19;3.40;;;1.70;;
62957;SDS011;49056;48.352;10.926;2023-02-11T08:21:40;4.28;;;2.30;;
62957;SDS011;49056;48.352;10.926;2023-02-11T08:27:00;3.65;;;2.17;;
62957;SDS011;49056;48.352;10.926;2023-02-11T08:32:21;4.50;;;1.33;;
62957;SDS011;49056;48.352;10.926;2023-02-11T08:37:44;4.50;;;2.17;;
62957;SDS011;49056;48.352;10.926;2023-02-11T08:43:05;4.55;;;2.08;;
62957;SDS011;49056;48.352;10.926;2023-02-11T08:48:25;2.78;;;1.65;;
62957;SDS011;49056;48.352;10.926;2023-02-11T08:53:47;3.50;;;1.75;;
62957;SDS011;49056;48.352;10.926;2023-02-11T08:59:09;3.67;;;2.03;;
62957;SDS011;49056;48.352;10.926;2023-02-11T09:04:30;3.28;;;1.87;;
62957;SDS011;49056;48.352;10.926;2023-02-11T09:09:51;5.90;;;1.85;;
62957;SDS011;49056;48.352;10.926;2023-02-11T09:15:11;3.08;;;1.98;;
62957;SDS011;49056;48.352;10.926;2023-02-11T09:20:31;3.37;;;1.90;;
62957;SDS011;49056;48.352;10.926;2023-02-11T09:25:52;4.47;;;2.27;;
62957;SDS011;49056;48.352;10.926;2023-02-11T09:31:13;4.45;;;2.35;;
62957;SDS011;49056;48.352;10.926;2023-02-11T09:36:35;3.80;;;1.95;;
62957;SDS011;49056;48.352;10.926;2023-02-11T09:52:50;4.15;;;1.87;;
62957;SDS011;49056;48.352;10.926;2023-02-11T09:58:18;4.78;;;2.17;;
62957;SDS011;49056;48.352;10.926;2023-02-11T10:14:24;4.15;;;2.08;;
62957;SDS011;49056;48.352;10.926;2023-02-11T10:25:20;6.07;;;2.17;;
62957;SDS011;49056;48.352;10.926;2023-02-11T10:36:09;6.82;;;3.25;;
62957;SDS011;49056;48.352;10.926;2023-02-11T10:41:32;2.25;;;1.70;;
62957;SDS011;49056;48.352;10.926;2023-02-11T10:46:53;5.85;;;2.28;;
62957;SDS011;49056;48.352;10.926;2023-02-11T10:52:16;3.80;;;2.33;;
62957;SDS011;49056;48.352;10.926;2023-02-11T10:57:39;4.57;;;1.85;;
62957;SDS011;49056;48.352;10.926;2023-02-11T11:03:16;5.55;;;2.53;;
62957;SDS011;49056;48.352;10.926;2023-02-11T11:08:47;3.70;;;2.08;;
62957;SDS011;49056;48.352;10.926;2023-02-11T11:14:12;4.55;;;2.35;;
62957;SDS011;49056;48.352;10.926;2023-02-11T11:19:37;4.95;;;1.80;;
62957;SDS011;49056;48.352;10.926;2023-02-11T11:24:58;6.60;;;2.92;;
62957;SDS011;49056;48.352;10.926;2023-02-11T11:30:20;5.00;;;2.67;;
62957;SDS011;49056;48.352;10.926;2023-02-11T11:35:42;2.90;;;1.80;;
62957;SDS011;49056;48.352;10.926;2023-02-11T11:41:17;7.05;;;2.75;;
62957;SDS011;49056;48.352;10.926;2023-02-11T11:46:39;4.22;;;2.08;;
62957;SDS011;49056;48.352;10.926;2023-02-11T11:57:27;4.30;;;2.45;;
62957;SDS011;49056;48.352;10.926;2023-02-11T12:08:24;6.68;;;3.28;;
62957;SDS011;49056;48.352;10.926;2023-02-11T12:14:08;5.35;;;2.45;;
62957;SDS011;49056;48.352;10.926;2023-02-11T12:19:37;15.98;;;9.13;;
62957;SDS011;49056;48.352;10.926;2023-02-11T12:46:42;31.90;;;14.40;;
62957;SDS011;49056;48.352;10.926;2023-02-11T12:57:31;27.40;;;16.87;;
62957;SDS011;49056;48.352;10.926;2023-02-11T13:08:16;5.68;;;3.75;;
62957;SDS011;49056;48.352;10.926;2023-02-11T13:13:45;7.50;;;4.55;;
62957;SDS011;49056;48.352;10.926;2023-02-11T13:41:29;6.20;;;3.42;;
62957;SDS011;49056;48.352;10.926;2023-02-11T13:52:17;7.57;;;3.60;;
62957;SDS011;49056;48.352;10.926;2023-02-11T13:57:41;5.62;;;2.42;;
62957;SDS011;49056;48.352;10.926;2023-02-11T14:14:31;2.62;;;1.42;;
62957;SDS011;49056;48.352;10.926;2023-02-11T14:19:53;4.12;;;1.80;;
62957;SDS011;49056;48.352;10.926;2023-02-11T14:25:23;2.23;;;1.40;;
62957;SDS011;49056;48.352;10.926;2023-02-11T14:41:45;2.87;;;1.52;;
62957;SDS011;49056;48.352;10.926;2023-02-11T14:47:10;2.75;;;1.42;;
62957;SDS011;49056;48.352;10.926;2023-02-11T14:52:33;2.62;;;1.58;;
62957;SDS011;49056;48.352;10.926;2023-02-11T14:58:03;2.87;;;1.42;;
62957;SDS011;49056;48.352;10.926;2023-02-11T15:08:46;3.83;;;1.30;;
62957;SDS011;49056;48.352;10.926;2023-02-11T15:14:08;3.75;;;1.73;;
62957;SDS011;49056;48.352;10.926;2023-02-11T15:30:30;3.25;;;1.35;;
62957;SDS011;49056;48.352;10.926;2023-02-11T15:35:52;2.37;;;1.23;;
62957;SDS011;49056;48.352;10.926;2023-02-11T15:47:09;2.25;;;1.17;;
62957;SDS011;49056;48.352;10.926;2023-02-11T15:52:29;3.00;;;1.35;;
62957;SDS011;49056;48.352;10.926;2023-02-11T15:57:55;2.95;;;1.67;;
62957;SDS011;49056;48.352;10.926;2023-02-11T16:03:22;1.75;;;1.10;;
62957;SDS011;49056;48.352;10.926;2023-02-11T16:14:39;2.12;;;1.12;;
62957;SDS011;49056;48.352;10.926;2023-02-11T16:19:59;1.75;;;1.10;;
62957;SDS011;49056;48.352;10.926;2023-02-11T16:25:19;2.47;;;0.80;;
62957;SDS011;49056;48.352;10.926;2023-02-11T16:30:41;2.28;;;1.23;;
62957;SDS011;49056;48.352;10.926;2023-02-11T16:36:08;2.72;;;1.33;;
62957;SDS011;49056;48.352;10.926;2023-02-11T16:46:49;3.83;;;1.48;;
62957;SDS011;49056;48.352;10.926;2023-02-11T16:52:12;2.10;;;1.15;;
62957;SDS011;49056;48.352;10.926;2023-02-11T16:57:33;4.07;;;1.75;;
62957;SDS011;49056;48.352;10.926;2023-02-11T17:02:53;3.20;;;1.50;;
62957;SDS011;49056;48.352;10.926;2023-02-11T17:08:14;2.97;;;1.70;;
62957;SDS011;49056;48.352;10.926;2023-02-11T17:13:34;2.80;;;1.55;;
62957;SDS011;49056;48.352;10.926;2023-02-11T17:18:55;2.30;;;1.08;;
62957;SDS011;49056;48.352;10.926;2023-02-11T17:24:16;4.32;;;1.73;;
62957;SDS011;49056;48.352;10.926;2023-02-11T17:29:36;2.42;;;1.45;;
62957;SDS011;49056;48.352;10.926;2023-02-11T17:34:57;4.37;;;1.48;;
62957;SDS011;49056;48.352;10.926;2023-02-11T17:40:17;2.30;;;1.12;;
62957;SDS011;49056;48.352;10.926;2023-02-11T17:45:41;3.37;;;1.53;;
62957;SDS011;49056;48.352;10.926;2023-02-11T17:51:01;2.58;;;1.45;;
62957;SDS011;49056;48.352;10.926;2023-02-11T17:56:21;1.73;;;1.15;;
62957;SDS011;49056;48.352;10.926;2023-02-11T18:01:42;2.53;;;1.30;;
62957;SDS011;49056;48.352;10.926;2023-02-11T18:07:02;2.67;;;1.35;;
62957;SDS011;49056;48.352;10.926;2023-02-11T18:12:23;2.40;;;1.30;;
62957;SDS011;49056;48.352;10.926;2023-02-11T18:17:46;3.22;;;1.45;;
62957;SDS011;49056;48.352;10.926;2023-02-11T18:23:07;2.28;;;1.12;;
62957;SDS011;49056;48.352;10.926;2023-02-11T18:28:27;2.25;;;1.37;;
62957;SDS011;49056;48.352;10.926;2023-02-11T18:33:47;3.63;;;1.47;;
62957;SDS011;49056;48.352;10.926;2023-02-11T18:39:08;2.70;;;1.23;;
62957;SDS011;49056;48.352;10.926;2023-02-11T18:44:28;3.23;;;1.63;;
62957;SDS011;49056;48.352;10.926;2023-02-11T18:49:48;2.37;;;1.20;;
62957;SDS011;49056;48.352;10.926;2023-02-11T18:55:09;2.25;;;0.90;;
62957;SDS011;49056;48.352;10.926;2023-02-11T19:00:29;2.15;;;1.10;;
62957;SDS011;49056;48.352;10.926;2023-02-11T19:05:50;2.42;;;1.25;;
62957;SDS011;49056;48.352;10.926;2023-02-11T19:11:10;3.08;;;1.35;;
62957;SDS011;49056;48.352;10.926;2023-02-11T19:16:31;1.73;;;1.05;;
62957;SDS011;49056;48.352;10.926;2023-02-11T19:21:51;2.85;;;1.45;;
62957;SDS011;49056;48.352;10.926;2023-02-11T19:27:11;2.47;;;1.23;;
62957;SDS011;49056;48.352;10.926;2023-02-11T19:32:32;1.85;;;0.95;;
62957;SDS011;49056;48.352;10.926;2023-02-11T19:37:52;3.10;;;1.08;;
62957;SDS011;49056;48.352;10.926;2023-02-11T19:43:13;2.53;;;1.02;;
62957;SDS011;49056;48.352;10.926;2023-02-11T19:48:33;1.55;;;0.80;;
62957;SDS011;49056;48.352;10.926;2023-02-11T19:53:53;1.85;;;0.95;;
62957;SDS011;49056;48.352;10.926;2023-02-11T19:59:14;1.12;;;0.75;;
62957;SDS011;49056;48.352;10.926;2023-02-11T20:04:35;2.62;;;1.00;;
62957;SDS011;49056;48.352;10.926;2023-02-11T20:09:55;2.08;;;1.00;;
62957;SDS011;49056;48.352;10.926;2023-02-11T20:15:16;1.37;;;0.90;;
62957;SDS011;49056;48.352;10.926;2023-02-11T20:20:37;2.47;;;1.10;;
62957;SDS011;49056;48.352;10.926;2023-02-11T20:25:57;1.75;;;1.25;;
62957;SDS011;49056;48.352;10.926;2023-02-11T20:31:17;3.03;;;1.07;;
62957;SDS011;49056;48.352;10.926;2023-02-11T20:36:38;1.52;;;0.88;;
62957;SDS011;49056;48.352;10.926;2023-02-11T20:41:59;1.50;;;0.98;;
62957;SDS011;49056;48.352;10.926;2023-02-11T20:47:20;1.85;;;0.88;;
62957;SDS011;49056;48.352;10.926;2023-02-11T20:52:40;1.58;;;0.75;;
62957;SDS011;49056;48.352;10.926;2023-02-11T20:58:00;2.72;;;1.12;;
62957;SDS011;49056;48.352;10.926;2023-02-11T21:03:21;2.80;;;0.98;;
62957;SDS011;49056;48.352;10.926;2023-02-11T21:08:41;2.83;;;1.43;;
62957;SDS011;49056;48.352;10.926;2023-02-11T21:14:01;1.83;;;1.00;;
62957;SDS011;49056;48.352;10.926;2023-02-11T21:19:22;3.12;;;1.40;;
62957;SDS011;49056;48.352;10.926;2023-02-11T21:24:42;2.05;;;1.27;;
62957;SDS011;49056;48.352;10.926;2023-02-11T21:30:03;1.80;;;1.07;;
62957;SDS011;49056;48.352;10.926;2023-02-11T21:35:23;1.92;;;1.30;;
62957;SDS011;49056;48.352;10.926;2023-02-11T21:40:44;3.22;;;1.33;;
62957;SDS011;49056;48.352;10.926;2023-02-11T21:46:08;1.12;;;0.73;;
62957;SDS011;49056;48.352;10.926;2023-02-11T21:51:29;3.28;;;1.58;;
62957;SDS011;49056;48.352;10.926;2023-02-11T21:56:49;3.17;;;1.83;;
62957;SDS011;49056;48.352;10.926;2023-02-11T22:02:10;2.78;;;1.40;;
62957;SDS011;49056;48.352;10.926;2023-02-11T22:07:30;2.78;;;1.60;;
62957;SDS011;49056;48.352;10.926;2023-02-11T22:12:53;2.60;;;1.45;;
62957;SDS011;49056;48.352;10.926;2023-02-11T22:18:14;3.67;;;1.40;;
62957;SDS011;49056;48.352;10.926;2023-02-11T22:23:35;3.73;;;1.57;;
62957;SDS011;49056;48.352;10.926;2023-02-11T22:28:55;3.45;;;1.55;;
62957;SDS011;49056;48.352;10.926;2023-02-11T22:34:16;2.75;;;1.35;;
62957;SDS011;49056;48.352;10.926;2023-02-11T22:39:36;3.23;;;2.23;;
62957;SDS011;49056;48.352;10.926;2023-02-11T22:44:56;2.60;;;1.50;;
62957;SDS011;49056;48.352;10.926;2023-02-11T22:50:17;1.67;;;1.25;;
62957;SDS011;49056;48.352;10.926;2023-02-11T22:55:38;2.45;;;1.45;;
62957;SDS011;49056;48.352;10.926;2023-02-11T23:00:58;3.67;;;1.95;;
62957;SDS011;49056;48.352;10.926;2023-02-11T23:06:19;2.33;;;1.10;;
62957;SDS011;49056;48.352;10.926;2023-02-11T23:11:39;3.28;;;1.55;;
62957;SDS011;49056;48.352;10.926;2023-02-11T23:17:00;2.33;;;1.33;;
62957;SDS011;49056;48.352;10.926;2023-02-11T23:22:20;4.07;;;1.65;;
62957;SDS011;49056;48.352;10.926;2023-02-11T23:27:40;3.70;;;2.10;;
62957;SDS011;49056;48.352;10.926;2023-02-11T23:33:01;3.60;;;1.92;;
62957;SDS011;49056;48.352;10.926;2023-02-11T23:38:21;4.35;;;1.25;;
62957;SDS011;49056;48.352;10.926;2023-02-11T23:43:41;3.60;;;1.92;;
62957;SDS011;49056;48.352;10.926;2023-02-11T23:49:02;2.40;;;1.65;;
62957;SDS011;49056;48.352;10.926;2023-02-11T23:54:23;3.20;;;2.10;;
62957;SDS011;49056;48.352;10.926;2023-02-11T23:59:43;2.30;;;1.52;;
